KDFW/DFW METAR and TAF weather

Enter ICAO airport designator
Station Type Date Time Source
KDFW METAR 2019/10/23 19:53 UTC NOAA

KDFW 231953Z 18018G30KT 10SM CLR 27/11 A2993 RMK AO2 PK WND 18035/1919 SLP127 T02670106


Station Type Date Time Source
KDFW Decoded METAR 2019/10/23 19:53 UTC NOAA

DALLAS/FT. WORTH INTERNATIONAL AIRPORT , TX, United States (KDFW) 32-54N 097-02W 174M
Oct 23, 2019 - 03:53 PM EDT / 2019.10.23 1953 UTC
Wind: from the S (180 degrees) at 21 MPH (18 KT) gusting to 35 MPH (30 KT):0
Visibility: 10 mile(s):0
Sky conditions: clear
Temperature: 80.1 F (26.7 C)
Dew Point: 51.1 F (10.6 C)
Relative Humidity: 36%
Pressure (altimeter): 29.93 in. Hg (1013 hPa)
ob: KDFW 231953Z 18018G30KT 10SM CLR 27/11 A2993 RMK AO2 PK WND 18035/1919 SLP127 T02670106
cycle: 20

Station Type Date Time Source
KDFW TAF 2019/10/23 21:52 UTC NOAA

TAF
AMD KDFW 232050Z 2321/2424 18018G28KT P6SM SKC
FM240000 16014KT P6SM SCT250
FM241400 16012KT P6SM VCSH BKN018
FM241900 36014KT 5SM SHRA VCTS OVC015CB

Example: see airport list